createdAt,value
2023-03-12T00:00:16.607Z,6.13
2023-03-12T00:02:46.013Z,5.95
2023-03-12T00:05:14.212Z,5.82
2023-03-12T00:07:42.215Z,5.50
2023-03-12T00:10:11.729Z,5.57
2023-03-12T00:12:39.666Z,5.60
2023-03-12T00:15:09.303Z,6.82
2023-03-12T00:17:37.295Z,6.30
2023-03-12T00:20:07.840Z,6.70
2023-03-12T00:22:35.873Z,6.35
2023-03-12T00:25:11.982Z,6.90
2023-03-12T00:27:39.970Z,6.20
2023-03-12T00:30:09.064Z,6.53
2023-03-12T00:32:37.647Z,7.37
2023-03-12T00:35:08.752Z,5.68
2023-03-12T00:37:38.315Z,6.18
2023-03-12T00:40:09.152Z,6.10
2023-03-12T00:42:37.137Z,6.10
2023-03-12T00:45:05.669Z,6.00
2023-03-12T00:47:33.714Z,6.90
2023-03-12T00:50:01.680Z,6.38
2023-03-12T00:52:30.954Z,6.15
2023-03-12T00:54:58.940Z,5.30
2023-03-12T00:57:27.005Z,5.75
2023-03-12T00:59:55.004Z,5.60
2023-03-12T01:02:22.995Z,6.63
2023-03-12T01:04:51.016Z,5.72
2023-03-12T01:07:19.109Z,5.10
2023-03-12T01:09:48.488Z,5.70
2023-03-12T01:12:16.476Z,6.00
2023-03-12T01:14:44.439Z,6.10
2023-03-12T01:17:12.418Z,6.10
2023-03-12T01:19:40.343Z,6.60
2023-03-12T01:22:08.333Z,6.03
2023-03-12T01:24:36.324Z,6.22
2023-03-12T01:27:05.932Z,5.70
2023-03-12T01:29:33.895Z,6.03
2023-03-12T01:32:01.833Z,5.65
2023-03-12T01:34:30.754Z,6.55
2023-03-12T01:36:58.770Z,6.00
2023-03-12T01:39:26.808Z,5.40
2023-03-12T01:41:54.794Z,5.70
2023-03-12T01:44:24.163Z,5.60
2023-03-12T01:46:52.086Z,5.40
2023-03-12T01:49:24.528Z,4.90
2023-03-12T01:51:57.612Z,5.57
2023-03-12T01:54:31.470Z,5.80
2023-03-12T01:56:59.782Z,5.70
2023-03-12T01:59:33.894Z,5.40
2023-03-12T02:02:03.100Z,5.70
2023-03-12T02:04:34.299Z,5.60
2023-03-12T02:07:05.605Z,6.07
2023-03-12T02:09:34.666Z,6.10
2023-03-12T02:12:03.170Z,5.38
2023-03-12T02:14:33.016Z,4.83
2023-03-12T02:17:01.085Z,5.55
2023-03-12T02:19:35.878Z,5.67
2023-03-12T02:22:04.623Z,5.80
2023-03-12T02:24:37.087Z,6.07
2023-03-12T02:27:07.812Z,5.28
2023-03-12T02:29:38.081Z,5.03
2023-03-12T02:32:09.131Z,5.10
2023-03-12T02:34:37.218Z,5.10
2023-03-12T02:37:05.281Z,5.20
2023-03-12T02:39:33.278Z,5.55
2023-03-12T02:42:01.922Z,5.35
2023-03-12T02:44:33.383Z,5.38
2023-03-12T02:47:02.739Z,4.65
2023-03-12T02:49:33.407Z,5.28
2023-03-12T02:52:02.282Z,4.85
2023-03-12T02:54:30.494Z,5.22
2023-03-12T02:56:58.752Z,5.30
2023-03-12T02:59:27.460Z,5.00
2023-03-12T03:01:58.529Z,4.68
2023-03-12T03:04:27.981Z,5.22
2023-03-12T03:06:56.225Z,4.80
2023-03-12T03:09:25.289Z,5.50
2023-03-12T03:11:53.378Z,5.50
2023-03-12T03:14:21.362Z,4.77
2023-03-12T03:16:49.331Z,4.83
2023-03-12T03:19:19.110Z,4.65
2023-03-12T03:21:47.631Z,4.30
2023-03-12T03:24:15.633Z,4.65
2023-03-12T03:26:44.224Z,5.10
2023-03-12T03:29:12.316Z,4.95
2023-03-12T03:31:40.242Z,3.88
2023-03-12T03:34:08.161Z,4.20
2023-03-12T03:36:37.493Z,4.07
2023-03-12T03:39:05.552Z,4.40
2023-03-12T03:41:33.691Z,4.50
2023-03-12T03:44:01.613Z,3.47
2023-03-12T03:46:29.670Z,3.80
2023-03-12T03:48:58.275Z,3.70
2023-03-12T03:51:26.193Z,4.00
2023-03-12T03:53:55.744Z,3.80
2023-03-12T03:56:23.711Z,4.30
2023-03-12T03:58:51.631Z,4.32
2023-03-12T04:01:19.872Z,3.80
2023-03-12T04:03:48.178Z,3.70
2023-03-12T04:06:16.175Z,4.30
2023-03-12T04:08:44.150Z,4.03
2023-03-12T04:11:15.718Z,4.20
2023-03-12T04:13:44.213Z,4.80
2023-03-12T04:16:13.093Z,4.22
2023-03-12T04:18:41.500Z,4.43
2023-03-12T04:21:17.951Z,4.03
2023-03-12T04:23:46.000Z,4.38
2023-03-12T04:26:15.448Z,4.28
2023-03-12T04:28:43.385Z,5.00
2023-03-12T04:31:12.641Z,4.85
2023-03-12T04:33:42.106Z,4.00
2023-03-12T04:36:10.217Z,4.80
2023-03-12T04:38:38.387Z,4.55
2023-03-12T04:41:08.864Z,4.80
2023-03-12T04:43:38.155Z,4.70
2023-03-12T04:46:06.767Z,4.95
2023-03-12T04:48:35.638Z,4.37
2023-03-12T04:51:04.240Z,5.43
2023-03-12T04:53:32.507Z,4.93
2023-03-12T04:56:00.444Z,4.87
2023-03-12T04:58:28.726Z,4.50
2023-03-12T05:00:58.028Z,5.38
2023-03-12T05:03:26.099Z,5.13
2023-03-12T05:05:54.079Z,4.75
2023-03-12T05:08:22.099Z,5.28
2023-03-12T05:10:50.100Z,4.90
2023-03-12T05:13:19.830Z,5.07
2023-03-12T05:15:50.606Z,5.25
2023-03-12T05:18:24.130Z,5.43
2023-03-12T05:21:00.044Z,4.90
2023-03-12T05:23:28.646Z,5.10
2023-03-12T05:25:56.799Z,4.93
2023-03-12T05:28:27.846Z,5.50
2023-03-12T05:30:56.571Z,5.30
2023-03-12T05:33:26.328Z,6.03
2023-03-12T05:35:54.492Z,5.68
2023-03-12T05:38:22.509Z,5.40
2023-03-12T05:40:54.579Z,5.65
2023-03-12T05:43:22.950Z,5.90
2023-03-12T05:45:50.956Z,5.90
2023-03-12T05:48:18.974Z,6.35
2023-03-12T05:50:48.534Z,6.10
2023-03-12T05:53:16.678Z,5.85
2023-03-12T05:55:44.596Z,5.90
2023-03-12T05:58:12.558Z,6.50
2023-03-12T06:00:44.365Z,6.10
2023-03-12T06:03:13.174Z,5.70
2023-03-12T06:05:41.201Z,6.72
2023-03-12T06:08:10.477Z,6.63
2023-03-12T06:10:39.905Z,6.60
2023-03-12T06:13:08.770Z,6.40
2023-03-12T06:15:36.749Z,5.90
2023-03-12T06:18:04.869Z,6.68
2023-03-12T06:20:33.000Z,6.75
2023-03-12T06:23:00.980Z,7.80
2023-03-12T06:25:30.295Z,7.30
2023-03-12T06:27:58.274Z,7.20
2023-03-12T06:30:27.098Z,6.63
2023-03-12T06:32:55.288Z,6.97
2023-03-12T06:35:23.438Z,7.78
2023-03-12T06:37:51.439Z,8.68
2023-03-12T06:40:19.672Z,7.80
2023-03-12T06:42:48.990Z,7.93
2023-03-12T06:45:17.098Z,8.43
2023-03-12T06:47:45.082Z,8.18
2023-03-12T06:50:13.144Z,7.90
2023-03-12T06:52:41.837Z,8.65
2023-03-12T06:55:10.129Z,8.80
2023-03-12T06:57:38.075Z,8.98
2023-03-12T07:00:09.051Z,8.30
2023-03-12T07:02:37.093Z,9.00
2023-03-12T07:05:05.537Z,9.30
2023-03-12T07:07:33.516Z,9.13
2023-03-12T07:10:01.525Z,10.10
2023-03-12T07:12:29.463Z,9.75
2023-03-12T07:14:57.390Z,10.32
2023-03-12T07:17:27.336Z,9.25
2023-03-12T07:19:55.318Z,9.98
2023-03-12T07:22:23.289Z,10.73
2023-03-12T07:24:52.225Z,10.10
2023-03-12T07:27:20.684Z,10.82
2023-03-12T07:29:49.468Z,9.97
2023-03-12T07:32:17.810Z,10.40
2023-03-12T07:34:47.421Z,11.10
2023-03-12T07:37:15.434Z,10.32
2023-03-12T07:39:43.799Z,12.33
2023-03-12T07:42:12.760Z,12.07
2023-03-12T07:44:40.732Z,12.27
2023-03-12T07:47:22.674Z,11.23
2023-03-12T07:49:53.988Z,11.85
2023-03-12T07:52:22.231Z,12.10
2023-03-12T07:54:52.715Z,11.70
2023-03-12T07:57:21.230Z,12.23
2023-03-12T07:59:49.448Z,13.32
2023-03-12T08:02:17.963Z,12.90
2023-03-12T08:04:46.142Z,13.77
2023-03-12T08:07:16.036Z,13.20
2023-03-12T08:09:44.370Z,13.57
2023-03-12T08:12:12.392Z,14.13
2023-03-12T08:14:40.596Z,14.60
2023-03-12T08:17:08.594Z,13.88
2023-03-12T08:19:36.611Z,15.57
2023-03-12T08:22:04.549Z,13.65
2023-03-12T08:24:34.019Z,13.50
2023-03-12T08:27:02.003Z,14.00
2023-03-12T08:29:30.012Z,14.90
2023-03-12T08:32:05.032Z,15.15
2023-03-12T08:34:33.579Z,16.07
2023-03-12T08:37:01.720Z,14.88
2023-03-12T08:39:29.846Z,18.23
2023-03-12T08:41:59.227Z,19.35
2023-03-12T08:44:27.331Z,16.88
2023-03-12T08:46:55.399Z,17.08
2023-03-12T08:49:24.085Z,19.95
2023-03-12T08:51:52.786Z,20.92
2023-03-12T08:54:21.301Z,19.92
2023-03-12T08:56:51.924Z,21.17
2023-03-12T08:59:23.436Z,22.07
2023-03-12T09:01:51.864Z,22.00
2023-03-12T09:04:20.066Z,21.08
2023-03-12T09:06:48.079Z,21.73
2023-03-12T09:09:16.085Z,23.35
2023-03-12T09:11:44.009Z,22.58
2023-03-12T09:17:02.171Z,24.38
2023-03-12T09:19:30.690Z,24.05
2023-03-12T09:21:58.790Z,25.20
2023-03-12T09:24:26.808Z,25.07
2023-03-12T09:26:54.787Z,24.83
2023-03-12T09:29:23.488Z,24.35
2023-03-12T09:31:51.609Z,22.80
2023-03-12T09:34:20.933Z,24.13
2023-03-12T09:36:48.990Z,23.73
2023-03-12T09:39:16.947Z,25.27
2023-03-12T09:41:48.487Z,25.02
2023-03-12T09:44:25.833Z,24.00
2023-03-12T09:46:56.616Z,23.77
2023-03-12T09:49:33.409Z,22.75
2023-03-12T09:52:03.225Z,22.48
2023-03-12T09:54:35.851Z,22.00
2023-03-12T09:57:10.191Z,19.60
2023-03-12T09:59:38.216Z,20.10
2023-03-12T10:02:15.582Z,19.50
2023-03-12T10:04:58.959Z,17.52
2023-03-12T10:07:33.451Z,18.30
2023-03-12T10:10:45.142Z,16.90
2023-03-12T10:13:25.837Z,15.88
2023-03-12T10:16:06.546Z,15.48
2023-03-12T10:18:48.550Z,14.50
2023-03-12T10:21:26.375Z,13.35
2023-03-12T10:24:12.550Z,13.07
2023-03-12T10:26:43.998Z,10.30
2023-03-12T10:29:17.136Z,10.15
2023-03-12T10:31:52.538Z,8.75
2023-03-12T10:34:24.344Z,8.00
2023-03-12T10:36:55.688Z,8.30
2023-03-12T10:39:23.681Z,9.73
2023-03-12T10:41:53.031Z,8.37
2023-03-12T10:44:24.422Z,7.95
2023-03-12T10:47:00.613Z,9.18
2023-03-12T10:49:32.169Z,8.70
2023-03-12T10:52:05.113Z,7.93
2023-03-12T10:54:35.887Z,7.80
2023-03-12T10:57:03.870Z,7.20
2023-03-12T10:59:34.568Z,8.10
2023-03-12T11:02:24.624Z,8.23
2023-03-12T11:04:53.601Z,7.80
2023-03-12T11:07:28.741Z,8.10
2023-03-12T11:10:17.005Z,7.82
2023-03-12T11:13:00.854Z,7.40
2023-03-12T11:15:37.823Z,7.32
2023-03-12T11:18:29.314Z,7.88
2023-03-12T11:20:59.266Z,7.67
2023-03-12T11:23:31.605Z,8.30
2023-03-12T11:26:03.024Z,7.78
2023-03-12T11:28:38.458Z,8.32
2023-03-12T11:31:10.754Z,7.40
2023-03-12T11:33:38.926Z,6.70
2023-03-12T11:36:26.459Z,7.40
2023-03-12T11:39:03.015Z,7.72
2023-03-12T11:41:49.876Z,8.07
2023-03-12T11:44:26.718Z,8.00
2023-03-12T11:47:07.486Z,7.10
2023-03-12T11:49:58.551Z,7.07
2023-03-12T11:52:38.534Z,6.93
2023-03-12T11:55:22.488Z,8.15
2023-03-12T11:58:02.040Z,7.28
2023-03-12T12:00:36.680Z,6.68
2023-03-12T12:03:35.386Z,8.57
2023-03-12T12:06:07.627Z,7.23
2023-03-12T12:08:50.072Z,8.02
2023-03-12T12:11:29.821Z,7.50
2023-03-12T12:14:11.422Z,7.82
2023-03-12T12:16:54.442Z,7.95
2023-03-12T12:19:35.003Z,7.75
2023-03-12T12:22:14.636Z,7.82
2023-03-12T12:25:03.431Z,7.70
2023-03-12T12:27:39.480Z,8.10
2023-03-12T12:30:22.302Z,8.60
2023-03-12T12:33:09.500Z,7.10
2023-03-12T12:35:40.315Z,8.10
2023-03-12T12:38:14.122Z,8.30
2023-03-12T12:40:45.032Z,8.90
2023-03-12T12:43:24.926Z,7.40
2023-03-12T12:45:56.529Z,8.68
2023-03-12T12:48:30.375Z,7.82
2023-03-12T12:51:00.207Z,8.38
2023-03-12T12:53:33.984Z,8.32
2023-03-12T12:56:12.542Z,8.07
2023-03-12T12:58:58.990Z,7.60
2023-03-12T13:01:28.241Z,7.32
2023-03-12T13:04:02.309Z,7.30
2023-03-12T13:06:32.218Z,6.65
2023-03-12T13:09:03.499Z,7.38
2023-03-12T13:11:40.472Z,7.00
2023-03-12T13:14:37.944Z,6.90
2023-03-12T13:17:28.072Z,7.40
2023-03-12T13:20:14.521Z,7.32
2023-03-12T13:23:25.965Z,7.35
2023-03-12T13:26:02.035Z,6.15
2023-03-12T13:28:42.010Z,7.10
2023-03-12T13:31:37.732Z,8.02
2023-03-12T13:34:51.747Z,7.07
2023-03-12T13:37:39.511Z,6.10
2023-03-12T13:41:02.381Z,7.15
2023-03-12T13:43:52.348Z,7.18
2023-03-12T13:46:45.133Z,7.90
2023-03-12T13:49:17.130Z,7.38
2023-03-12T13:51:57.382Z,7.20
2023-03-12T13:54:29.698Z,6.95
2023-03-12T13:57:03.683Z,6.70
2023-03-12T13:59:33.340Z,7.15
2023-03-12T14:02:06.816Z,7.53
2023-03-12T14:04:38.362Z,7.00
2023-03-12T14:07:35.956Z,7.63
2023-03-12T14:10:15.249Z,7.45
2023-03-12T14:12:52.545Z,6.47
2023-03-12T14:15:28.907Z,6.68
2023-03-12T14:18:02.181Z,6.72
2023-03-12T14:20:31.636Z,6.10
2023-03-12T14:23:02.066Z,6.40
2023-03-12T14:25:36.104Z,6.50
2023-03-12T14:28:05.047Z,5.90
2023-03-12T14:30:45.513Z,7.80
2023-03-12T14:33:16.882Z,8.27
2023-03-12T14:35:49.102Z,7.05
2023-03-12T14:38:22.852Z,7.50
2023-03-12T14:40:56.152Z,7.22
2023-03-12T14:43:26.571Z,7.05
2023-03-12T14:45:59.008Z,6.50
2023-03-12T14:48:32.377Z,7.28
2023-03-12T14:51:01.922Z,6.88
2023-03-12T14:53:32.239Z,7.33
2023-03-12T14:56:02.199Z,7.38
2023-03-12T14:58:31.190Z,7.40
2023-03-12T15:01:01.877Z,8.05
2023-03-12T15:03:34.759Z,8.13
2023-03-12T15:06:02.710Z,7.38
2023-03-12T15:08:33.491Z,7.32
2023-03-12T15:11:01.464Z,7.25
2023-03-12T15:13:29.580Z,6.95
2023-03-12T15:15:57.770Z,6.57
2023-03-12T15:18:28.054Z,7.43
2023-03-12T15:20:59.433Z,7.32
2023-03-12T15:23:48.593Z,7.03
2023-03-12T15:26:28.874Z,9.00
2023-03-12T15:28:58.235Z,8.10
2023-03-12T15:31:26.615Z,7.88
2023-03-12T15:34:02.436Z,7.35
2023-03-12T15:36:34.175Z,7.60
2023-03-12T15:39:05.774Z,7.50
2023-03-12T15:41:44.043Z,7.70
2023-03-12T15:44:19.947Z,8.40
2023-03-12T15:46:49.780Z,6.20
2023-03-12T15:49:24.905Z,7.57
2023-03-12T15:52:03.173Z,7.87
2023-03-12T15:54:31.919Z,8.07
2023-03-12T15:57:23.511Z,9.80
2023-03-12T16:00:09.432Z,8.25
2023-03-12T16:02:38.730Z,7.73
2023-03-12T16:05:08.179Z,7.60
2023-03-12T16:07:38.176Z,8.02
2023-03-12T16:10:08.128Z,7.80
2023-03-12T16:12:38.061Z,8.30
2023-03-12T16:15:07.058Z,7.03
2023-03-12T16:17:35.048Z,8.03
2023-03-12T16:20:04.062Z,7.60
2023-03-12T16:22:32.089Z,8.20
2023-03-12T16:25:01.458Z,8.13
2023-03-12T16:27:32.678Z,8.27
2023-03-12T16:30:01.125Z,7.47
2023-03-12T16:32:29.629Z,7.90
2023-03-12T16:34:57.898Z,8.50
2023-03-12T16:37:26.651Z,8.10
2023-03-12T16:39:54.618Z,8.60
2023-03-12T16:42:24.097Z,8.57
2023-03-12T16:44:52.157Z,8.55
2023-03-12T16:47:20.183Z,9.45
2023-03-12T16:49:48.114Z,8.57
2023-03-12T16:52:18.974Z,8.95
2023-03-12T16:54:46.960Z,8.20
2023-03-12T16:57:21.151Z,10.13
2023-03-12T16:59:50.760Z,9.45
2023-03-12T17:02:21.136Z,8.90
2023-03-12T17:04:51.030Z,8.67
2023-03-12T17:07:19.085Z,7.75
2023-03-12T17:09:47.113Z,8.40
2023-03-12T17:12:29.563Z,7.63
2023-03-12T17:14:59.730Z,7.27
2023-03-12T17:17:27.667Z,5.97
2023-03-12T17:19:55.742Z,5.47
2023-03-12T17:22:23.762Z,5.60
2023-03-12T17:24:51.706Z,5.00
2023-03-12T17:27:19.782Z,5.15
2023-03-12T17:29:47.764Z,5.30
2023-03-12T17:32:17.286Z,5.15
2023-03-12T17:34:45.354Z,4.97
2023-03-12T17:37:13.500Z,4.75
2023-03-12T17:39:41.488Z,5.20
2023-03-12T17:42:09.523Z,4.70
2023-03-12T17:44:39.004Z,4.00
2023-03-12T17:47:07.840Z,4.45
2023-03-12T17:49:37.275Z,3.40
2023-03-12T17:52:05.314Z,3.30
2023-03-12T17:54:33.304Z,3.42
2023-03-12T17:57:01.246Z,3.20
2023-03-12T17:59:29.222Z,3.50
2023-03-12T18:01:57.211Z,3.50
2023-03-12T18:04:25.340Z,4.70
2023-03-12T18:06:54.922Z,3.80
2023-03-12T18:09:23.338Z,3.50
2023-03-12T18:11:51.400Z,3.70
2023-03-12T18:14:19.503Z,3.67
2023-03-12T18:16:47.496Z,4.07
2023-03-12T18:19:16.013Z,4.35
2023-03-12T18:21:44.168Z,4.40
2023-03-12T18:24:14.634Z,5.13
2023-03-12T18:26:43.073Z,4.60
2023-03-12T18:29:11.012Z,5.15
2023-03-12T18:31:39.108Z,4.85
2023-03-12T18:34:07.194Z,4.90
2023-03-12T18:36:35.200Z,4.70
2023-03-12T18:39:06.238Z,5.10
2023-03-12T18:41:36.515Z,4.60
2023-03-12T18:44:04.970Z,4.40
2023-03-12T18:46:32.972Z,4.53
2023-03-12T18:49:05.516Z,5.25
2023-03-12T18:51:33.573Z,5.22
2023-03-12T18:54:01.786Z,4.72
2023-03-12T18:56:29.950Z,4.10
2023-03-12T18:58:59.308Z,4.32
2023-03-12T19:01:27.386Z,3.78
2023-03-12T19:03:55.524Z,3.80
2023-03-12T19:06:23.508Z,4.28
2023-03-12T19:08:51.589Z,4.13
2023-03-12T19:11:19.696Z,4.40
2023-03-12T19:13:52.160Z,4.65
2023-03-12T19:16:22.740Z,3.90
2023-03-12T19:18:51.689Z,4.38
2023-03-12T19:21:20.052Z,4.30
2023-03-12T19:23:48.060Z,3.90
2023-03-12T19:26:16.070Z,4.15
2023-03-12T19:28:44.309Z,4.38
2023-03-12T19:31:15.331Z,3.60
2023-03-12T19:33:45.131Z,4.10
2023-03-12T19:36:13.161Z,4.80
2023-03-12T19:38:41.468Z,4.93
2023-03-12T19:41:10.066Z,5.00
2023-03-12T19:43:40.033Z,4.57
2023-03-12T19:46:08.407Z,5.00
2023-03-12T19:48:36.426Z,5.20
2023-03-12T19:51:10.287Z,5.35
2023-03-12T19:53:38.733Z,5.88
2023-03-12T19:56:07.222Z,5.50
2023-03-12T19:58:35.225Z,5.47
2023-03-12T20:01:04.162Z,6.65
2023-03-12T20:03:32.852Z,5.78
2023-03-12T20:06:01.083Z,5.70
2023-03-12T20:08:33.264Z,4.70
2023-03-12T20:11:05.723Z,5.30
2023-03-12T20:13:34.315Z,5.70
2023-03-12T20:16:03.812Z,5.28
2023-03-12T20:18:31.995Z,5.57
2023-03-12T20:20:59.977Z,5.25
2023-03-12T20:23:27.973Z,5.78
2023-03-12T20:25:57.234Z,6.18
2023-03-12T20:28:25.144Z,5.65
2023-03-12T20:30:53.479Z,5.25
2023-03-12T20:33:21.604Z,5.30
2023-03-12T20:35:50.546Z,5.43
2023-03-12T20:38:18.543Z,5.50
2023-03-12T20:40:47.142Z,5.25
2023-03-12T20:43:16.995Z,5.25
2023-03-12T20:45:48.629Z,5.82
2023-03-12T20:48:17.741Z,6.30
2023-03-12T20:50:45.774Z,6.28
2023-03-12T20:53:13.686Z,5.45
2023-03-12T20:55:41.761Z,5.22
2023-03-12T20:58:09.868Z,4.72
2023-03-12T21:00:39.126Z,4.88
2023-03-12T21:03:07.135Z,5.30
2023-03-12T21:05:35.092Z,5.10
2023-03-12T21:08:03.096Z,5.35
2023-03-12T21:10:31.729Z,6.20
2023-03-12T21:12:59.931Z,6.03
2023-03-12T21:15:27.925Z,5.25
2023-03-12T21:17:57.320Z,6.10
2023-03-12T21:20:25.664Z,5.47
2023-03-12T21:22:53.764Z,5.25
2023-03-12T21:25:21.805Z,5.93
2023-03-12T21:27:51.687Z,5.55
2023-03-12T21:30:20.482Z,5.90
2023-03-12T21:32:48.507Z,5.50
2023-03-12T21:35:20.033Z,5.30
2023-03-12T21:37:48.331Z,5.57
2023-03-12T21:40:17.261Z,6.17
2023-03-12T21:42:45.266Z,5.50
2023-03-12T21:45:13.204Z,6.15
2023-03-12T21:47:41.568Z,6.07
2023-03-12T21:50:10.877Z,5.88
2023-03-12T21:52:43.306Z,6.93
2023-03-12T21:55:12.278Z,6.40
2023-03-12T21:57:40.240Z,6.15
2023-03-12T22:00:12.834Z,6.55
2023-03-12T22:02:41.330Z,6.28
2023-03-12T22:05:10.363Z,6.85
2023-03-12T22:07:40.023Z,6.50
2023-03-12T22:10:11.774Z,6.20
2023-03-12T22:12:40.367Z,6.20
2023-03-12T22:15:09.720Z,6.20
2023-03-12T22:17:37.693Z,6.38
2023-03-12T22:20:07.909Z,6.80
2023-03-12T22:22:35.886Z,7.47
2023-03-12T22:25:05.823Z,7.85
2023-03-12T22:27:33.822Z,8.00
2023-03-12T22:30:01.889Z,7.35
2023-03-12T22:32:30.139Z,7.13
2023-03-12T22:34:58.094Z,7.33
2023-03-12T22:37:26.002Z,7.60
2023-03-12T22:39:58.243Z,8.68
2023-03-12T22:42:27.548Z,8.50
2023-03-12T22:44:55.643Z,8.77
2023-03-12T22:47:24.035Z,8.48
2023-03-12T22:49:53.086Z,8.52
2023-03-12T22:52:21.017Z,8.23
2023-03-12T22:54:49.087Z,9.70
2023-03-12T22:57:17.075Z,8.00
2023-03-12T22:59:48.013Z,8.13
2023-03-12T23:02:16.040Z,7.53
2023-03-12T23:04:44.037Z,7.20
2023-03-12T23:07:16.543Z,8.02
2023-03-12T23:09:45.205Z,7.90
2023-03-12T23:12:13.165Z,7.60
2023-03-12T23:14:41.135Z,7.70
2023-03-12T23:17:11.347Z,6.93
2023-03-12T23:19:39.362Z,6.68
2023-03-12T23:22:08.171Z,7.23
2023-03-12T23:24:36.517Z,7.20
2023-03-12T23:27:05.439Z,6.82
2023-03-12T23:29:33.857Z,6.67
2023-03-12T23:32:02.158Z,7.65
2023-03-12T23:34:31.554Z,7.13
2023-03-12T23:36:59.551Z,5.80
2023-03-12T23:39:27.800Z,6.05
2023-03-12T23:41:56.401Z,6.10
2023-03-12T23:44:24.858Z,7.20
2023-03-12T23:46:52.866Z,6.23
2023-03-12T23:49:20.906Z,5.75
2023-03-12T23:51:50.300Z,6.88
2023-03-12T23:54:18.273Z,5.72
2023-03-12T23:56:46.227Z,5.57
2023-03-12T23:59:14.229Z,6.20
